Terminal Aerodrome Forecast
Issued by NWS

Home | Current Version | Previous Version | Graphics & Text | Print | Product List | Glossary On
Versions: 1 2 3 4 5 6 7 8 9 10 11 12 13 14 15 16 17
000
FTUS43 KMPX 281500 AAA
TAFRNH
TAF AMD
KRNH 281521Z 2815/2912 24004KT 6SM BR OVC035
      TEMPO 2815/2818 BKN025 OVC035
     FM282000 35005KT P6SM SCT250
     FM290900 01005KT P6SM BKN100=

USA.gov is the U.S. government's official web portal to all federal, state and local government web resources and services.